Time;durP1;ratioP1;P1;durP2;ratioP2;P2;SDS_P1;SDS_P2;PMS_P1;PMS_P2;Temp;Humidity;BMP_temperature;BMP_pressure;BME280_temperature;BME280_humidity;BME280_pressure;Samples;Min_cycle;Max_cycle;Signal;HPM_P1;HPM_P2
2024/04/16 00:01:26;;;;;;;1.50;1.20;;;6.40;98.20;;;;;;5284986;26;20296;-73
2024/04/16 00:03:54;;;;;;;1.50;1.30;;;6.30;98.20;;;;;;5303689;26;20876;-74
2024/04/16 00:06:23;;;;;;;1.50;1.27;;;6.30;98.20;;;;;;5291922;26;20268;-74
2024/04/16 00:08:52;;;;;;;1.53;1.30;;;6.30;98.20;;;;;;5314234;26;20528;-74
2024/04/16 00:11:18;;;;;;;1.50;1.30;;;6.30;98.20;;;;;;5295859;26;20977;-74
2024/04/16 00:13:47;;;;;;;1.50;1.20;;;6.30;98.20;;;;;;5308793;26;21086;-73
2024/04/16 00:16:13;;;;;;;1.53;1.20;;;6.30;98.20;;;;;;5292357;26;21152;-74
2024/04/16 00:18:41;;;;;;;1.50;1.23;;;6.30;98.20;;;;;;5314435;26;20491;-75
2024/04/16 00:21:07;;;;;;;1.50;1.30;;;6.30;98.20;;;;;;5290301;26;20548;-74
2024/04/16 00:23:39;;;;;;;1.50;1.30;;;6.40;98.20;;;;;;5301448;26;20527;-75
2024/04/16 00:26:05;;;;;;;1.50;1.30;;;6.40;98.20;;;;;;5291354;26;20543;-74
2024/04/16 00:28:33;;;;;;;1.50;1.20;;;6.40;98.20;;;;;;5304188;26;21077;-74
2024/04/16 00:30:59;;;;;;;1.50;1.30;;;6.40;98.20;;;;;;5279699;26;20249;-74
2024/04/16 00:33:27;;;;;;;1.50;1.30;;;6.50;98.20;;;;;;5297702;26;20527;-74
2024/04/16 00:35:53;;;;;;;1.50;1.30;;;6.50;98.20;;;;;;5293942;26;20319;-74
2024/04/16 00:38:21;;;;;;;1.50;1.20;;;6.50;98.20;;;;;;5312841;26;20472;-75
2024/04/16 00:40:50;;;;;;;1.50;1.30;;;6.60;98.20;;;;;;5291056;26;20755;-74
2024/04/16 00:43:18;;;;;;;1.50;1.30;;;6.60;98.20;;;;;;5318213;26;21305;-75
2024/04/16 00:45:49;;;;;;;1.50;1.30;;;6.60;98.20;;;;;;5301903;26;20475;-74
2024/04/16 00:48:18;;;;;;;1.50;1.27;;;6.60;98.20;;;;;;5288120;26;20487;-74
2024/04/16 00:50:46;;;;;;;1.50;1.30;;;6.60;98.20;;;;;;5300807;26;20472;-74
2024/04/16 00:53:15;;;;;;;1.50;1.30;;;6.60;98.20;;;;;;5263030;26;20598;-75
2024/04/16 00:55:44;;;;;;;1.50;1.23;;;6.70;98.20;;;;;;5302602;26;20471;-73
2024/04/16 00:58:18;;;;;;;1.50;1.30;;;6.60;98.20;;;;;;5304131;26;20499;-74
2024/04/16 01:00:44;;;;;;;1.50;1.30;;;6.70;98.20;;;;;;5300204;26;20991;-75
2024/04/16 01:03:12;;;;;;;1.50;1.30;;;6.60;98.20;;;;;;5303215;26;20507;-74
2024/04/16 01:05:41;;;;;;;1.50;1.30;;;6.60;98.20;;;;;;5302868;26;20240;-72
2024/04/16 01:08:11;;;;;;;1.50;1.30;;;6.60;98.20;;;;;;5314689;26;20553;-75
2024/04/16 01:10:38;;;;;;;1.50;1.20;;;6.60;98.20;;;;;;5299814;26;20487;-74
2024/04/16 01:13:06;;;;;;;1.50;1.20;;;6.50;98.20;;;;;;5292009;26;20602;-74
2024/04/16 01:15:35;;;;;;;1.50;1.20;;;6.50;98.20;;;;;;5296984;26;20477;-74
2024/04/16 01:18:06;;;;;;;1.50;1.30;;;6.50;98.20;;;;;;5289984;26;20849;-74
2024/04/16 01:20:33;;;;;;;1.50;1.20;;;6.40;98.20;;;;;;5301611;26;20541;-74
2024/04/16 01:23:04;;;;;;;1.50;1.20;;;6.40;98.20;;;;;;5294181;26;20627;-75
2024/04/16 01:25:30;;;;;;;1.50;1.30;;;6.40;98.20;;;;;;5285212;26;20487;-74
2024/04/16 01:27:58;;;;;;;1.50;1.30;;;6.30;98.20;;;;;;5294701;26;20505;-74
2024/04/16 01:30:24;;;;;;;1.53;1.30;;;6.30;98.20;;;;;;5300205;26;20483;-75
2024/04/16 01:32:52;;;;;;;1.53;1.43;;;6.30;98.20;;;;;;5305585;26;20614;-74
2024/04/16 01:35:18;;;;;;;1.50;1.20;;;6.30;98.20;;;;;;5303141;26;20279;-75
2024/04/16 01:37:47;;;;;;;1.50;1.20;;;6.30;98.20;;;;;;5293116;26;20499;-75
2024/04/16 01:40:15;;;;;;;1.50;1.30;;;6.20;98.20;;;;;;5297860;26;20288;-75
2024/04/16 01:42:44;;;;;;;1.57;1.30;;;6.20;98.20;;;;;;5291845;26;20918;-74
2024/04/16 01:45:10;;;;;;;1.50;1.30;;;6.20;98.20;;;;;;5293370;26;20537;-74
2024/04/16 01:47:38;;;;;;;1.50;1.30;;;6.20;98.20;;;;;;5313511;26;20568;-75
2024/04/16 01:50:05;;;;;;;1.50;1.30;;;6.10;98.20;;;;;;5304591;26;20244;-74
2024/04/16 01:52:33;;;;;;;1.50;1.30;;;6.10;98.20;;;;;;5294540;26;20828;-75
2024/04/16 01:54:59;;;;;;;1.50;1.30;;;6.10;98.20;;;;;;5302955;26;20475;-75
2024/04/16 01:57:30;;;;;;;1.60;1.33;;;6.10;98.20;;;;;;5303434;26;20621;-75
2024/04/16 01:59:55;;;;;;;1.50;1.30;;;6.10;98.20;;;;;;5303316;26;20257;-75
2024/04/16 02:02:25;;;;;;;1.53;1.33;;;6.10;98.20;;;;;;5297216;26;21018;-74
2024/04/16 02:04:51;;;;;;;1.60;1.33;;;6.00;98.20;;;;;;5302090;26;20595;-74
2024/04/16 02:07:20;;;;;;;1.50;1.23;;;6.10;98.20;;;;;;5295625;26;20562;-74
2024/04/16 02:09:45;;;;;;;1.60;1.30;;;6.00;98.20;;;;;;5301940;26;20542;-74
2024/04/16 02:12:14;;;;;;;1.50;1.20;;;6.00;98.20;;;;;;5310213;26;20984;-74
2024/04/16 02:14:42;;;;;;;1.50;1.30;;;6.00;98.20;;;;;;5311982;26;20346;-73
2024/04/16 02:17:11;;;;;;;1.50;1.40;;;6.00;98.20;;;;;;5293223;26;21145;-74
2024/04/16 02:19:36;;;;;;;1.50;1.20;;;6.10;98.20;;;;;;5301397;26;20584;-75
2024/04/16 02:22:05;;;;;;;1.60;1.40;;;6.10;98.20;;;;;;5292126;26;20491;-75
2024/04/16 02:24:31;;;;;;;1.50;1.30;;;6.10;98.20;;;;;;5294244;26;20619;-73
2024/04/16 02:27:00;;;;;;;1.50;1.20;;;6.10;98.20;;;;;;5290621;26;20545;-74
2024/04/16 02:29:27;;;;;;;1.57;1.43;;;6.10;98.20;;;;;;5301117;26;20486;-75
2024/04/16 02:31:58;;;;;;;1.50;1.20;;;6.10;98.20;;;;;;5293903;26;20618;-74
2024/04/16 02:34:24;;;;;;;1.50;1.30;;;6.20;98.20;;;;;;5303239;26;21140;-74
2024/04/16 02:36:53;;;;;;;1.57;1.30;;;6.20;98.20;;;;;;5303295;26;21083;-74
2024/04/16 02:39:22;;;;;;;1.60;1.30;;;6.20;98.20;;;;;;5304148;26;20496;-74
2024/04/16 02:41:51;;;;;;;1.57;1.30;;;6.20;98.20;;;;;;5303586;26;20493;-74
2024/04/16 02:44:17;;;;;;;1.50;1.30;;;6.20;98.20;;;;;;5301055;26;20467;-74
2024/04/16 02:46:46;;;;;;;1.50;1.23;;;6.20;98.20;;;;;;5291994;26;20619;-74
2024/04/16 02:49:14;;;;;;;1.60;1.40;;;6.20;98.20;;;;;;5305365;26;20639;-75
2024/04/16 02:51:42;;;;;;;1.50;1.30;;;6.20;98.20;;;;;;5293141;26;20555;-75
2024/04/16 02:54:08;;;;;;;1.50;1.20;;;6.10;98.20;;;;;;5314110;26;21069;-74
2024/04/16 02:56:37;;;;;;;1.53;1.30;;;6.10;98.20;;;;;;5295977;26;20863;-75
2024/04/16 02:59:02;;;;;;;1.50;1.30;;;6.20;98.20;;;;;;5313644;26;20291;-73
2024/04/16 03:01:31;;;;;;;1.50;1.30;;;6.20;98.20;;;;;;5297752;26;20489;-74
2024/04/16 03:03:57;;;;;;;1.50;1.30;;;6.20;98.20;;;;;;5307223;26;20372;-74
2024/04/16 03:06:28;;;;;;;1.50;1.23;;;6.20;98.20;;;;;;5297560;26;20507;-74
2024/04/16 03:08:54;;;;;;;1.50;1.20;;;6.30;98.20;;;;;;5300116;26;20337;-75
2024/04/16 03:11:22;;;;;;;1.50;1.33;;;6.30;98.20;;;;;;5296903;26;20499;-74
2024/04/16 03:13:48;;;;;;;1.50;1.30;;;6.40;98.20;;;;;;5298516;26;20245;-75
2024/04/16 03:16:17;;;;;;;1.50;1.30;;;6.40;98.20;;;;;;5292324;26;20970;-76
2024/04/16 03:18:44;;;;;;;1.50;1.20;;;6.40;98.20;;;;;;5305737;26;20260;-76
2024/04/16 03:21:15;;;;;;;1.50;1.30;;;6.50;98.20;;;;;;5292025;26;20591;-74
2024/04/16 03:23:43;;;;;;;1.60;1.33;;;6.40;98.20;;;;;;5301845;26;21379;-76
2024/04/16 03:26:12;;;;;;;1.50;1.20;;;6.40;98.20;;;;;;5291694;26;20636;-76
2024/04/16 03:28:37;;;;;;;1.50;1.30;;;6.40;98.20;;;;;;5296211;26;20612;-77
2024/04/16 03:31:06;;;;;;;1.50;1.30;;;6.40;98.20;;;;;;5292511;26;20495;-77
2024/04/16 03:33:32;;;;;;;1.60;1.30;;;6.40;98.20;;;;;;5324613;21;20302;-78
2024/04/16 03:36:01;;;;;;;1.50;1.30;;;6.40;98.20;;;;;;5304886;26;20918;-78
2024/04/16 03:38:58;;;;;;;1.53;1.33;;;6.40;98.20;;;;;;5324971;26;20528;-78
2024/04/16 03:41:29;;;;;;;1.50;1.20;;;6.40;98.20;;;;;;5308070;26;20498;-78
2024/04/16 03:43:57;;;;;;;1.57;1.30;;;6.50;98.20;;;;;;5317187;26;20588;-78
2024/04/16 03:46:23;;;;;;;1.50;1.30;;;6.50;98.20;;;;;;5300790;26;20554;-77
2024/04/16 03:48:51;;;;;;;1.50;1.23;;;6.50;98.20;;;;;;5325050;26;20483;-77
2024/04/16 03:51:17;;;;;;;1.50;1.20;;;6.50;98.20;;;;;;5289846;26;20294;-79
2024/04/16 03:53:46;;;;;;;1.50;1.20;;;6.40;98.20;;;;;;5313559;26;20481;-77
2024/04/16 03:56:11;;;;;;;1.57;1.30;;;6.40;98.20;;;;;;5304569;26;20267;-77
2024/04/16 03:59:04;;;;;;;1.50;1.30;;;6.40;98.20;;;;;;5334319;26;20479;-77
2024/04/16 04:01:30;;;;;;;1.60;1.30;;;6.40;98.20;;;;;;5299627;26;20256;-76
2024/04/16 04:04:01;;;;;;;1.50;1.20;;;6.40;98.20;;;;;;5306830;26;20487;-77
2024/04/16 04:06:29;;;;;;;1.50;1.30;;;6.40;98.20;;;;;;5299118;26;20268;-79
2024/04/16 04:08:55;;;;;;;1.50;1.30;;;6.40;98.20;;;;;;5323040;26;20466;-79
2024/04/16 04:11:23;;;;;;;1.50;1.30;;;6.40;98.20;;;;;;5304172;26;21096;-78
2024/04/16 04:13:52;;;;;;;1.50;1.30;;;6.30;98.20;;;;;;5319034;26;20259;-78
2024/04/16 04:16:20;;;;;;;1.50;1.20;;;6.30;98.20;;;;;;5309395;26;20617;-77
2024/04/16 04:18:48;;;;;;;1.50;1.30;;;6.20;98.20;;;;;;5330549;26;20574;-77
2024/04/16 04:21:16;;;;;;;1.57;1.40;;;6.20;98.20;;;;;;5304166;26;20548;-78
2024/04/16 04:23:42;;;;;;;1.50;1.30;;;6.20;98.20;;;;;;5335666;26;20637;-77
2024/04/16 04:26:10;;;;;;;1.50;1.30;;;6.20;98.20;;;;;;5316556;26;21566;-77
2024/04/16 04:28:36;;;;;;;1.50;1.30;;;6.20;98.20;;;;;;5318343;26;20370;-78
2024/04/16 04:31:18;;;;;;;1.53;1.30;;;6.20;98.20;;;;;;5303600;26;20492;-77
2024/04/16 04:33:44;;;;;;;1.50;1.30;;;6.20;98.20;;;;;;5330499;26;20379;-78
2024/04/16 04:36:14;;;;;;;1.50;1.20;;;6.20;98.20;;;;;;5307182;26;20502;-80
2024/04/16 04:38:49;;;;;;;1.50;1.30;;;6.20;98.20;;;;;;5328146;26;20611;-79
2024/04/16 04:41:37;;;;;;;1.50;1.20;;;6.30;98.20;;;;;;5314106;26;20489;-79
2024/04/16 04:44:05;;;;;;;1.53;1.30;;;6.30;98.20;;;;;;5327098;26;20520;-78
2024/04/16 04:46:37;;;;;;;1.50;1.20;;;6.30;98.20;;;;;;5319638;26;20469;-78
2024/04/16 04:49:03;;;;;;;1.50;1.20;;;6.30;98.20;;;;;;5314943;26;20533;-77
2024/04/16 04:51:35;;;;;;;1.53;1.30;;;6.40;98.20;;;;;;5313313;26;20480;-78
2024/04/16 04:54:00;;;;;;;1.50;1.20;;;6.40;98.20;;;;;;5302455;26;20525;-78
2024/04/16 04:56:32;;;;;;;1.50;1.27;;;6.40;98.20;;;;;;5305200;26;20594;-78
2024/04/16 04:58:58;;;;;;;1.50;1.20;;;6.40;98.20;;;;;;5311240;26;20241;-78
2024/04/16 05:01:27;;;;;;;1.50;1.20;;;6.40;98.20;;;;;;5299360;26;20624;-79
2024/04/16 05:03:55;;;;;;;1.50;1.20;;;6.50;98.20;;;;;;5321942;26;20268;-78
2024/04/16 05:06:24;;;;;;;1.50;1.30;;;6.50;98.20;;;;;;5301543;26;20551;-78
2024/04/16 05:08:50;;;;;;;1.60;1.40;;;6.50;98.20;;;;;;5306398;26;20934;-79
2024/04/16 05:11:18;;;;;;;1.53;1.30;;;6.50;98.20;;;;;;5312782;26;20501;-78
2024/04/16 05:13:44;;;;;;;1.50;1.40;;;6.50;98.20;;;;;;5338018;26;20283;-78
2024/04/16 05:16:13;;;;;;;1.50;1.20;;;6.60;98.20;;;;;;5298490;26;20648;-79
2024/04/16 05:18:38;;;;;;;1.53;1.30;;;6.60;98.20;;;;;;5311699;26;20355;-78
2024/04/16 05:21:15;;;;;;;1.50;1.23;;;6.60;98.20;;;;;;5307369;26;20502;-78
2024/04/16 05:23:41;;;;;;;1.53;1.30;;;6.60;98.20;;;;;;5324594;26;20232;-78
2024/04/16 05:26:09;;;;;;;1.50;1.27;;;6.70;98.20;;;;;;5303085;26;20741;-78
2024/04/16 05:28:35;;;;;;;1.60;1.40;;;6.70;98.20;;;;;;5325113;26;20569;-78
2024/04/16 05:31:04;;;;;;;1.50;1.20;;;6.80;98.20;;;;;;5309354;26;20903;-78
2024/04/16 05:33:30;;;;;;;1.50;1.20;;;6.80;98.20;;;;;;5334516;26;20544;-78
2024/04/16 05:36:00;;;;;;;1.50;1.33;;;6.90;98.20;;;;;;5319776;26;20465;-79
2024/04/16 05:38:30;;;;;;;1.50;1.40;;;7.00;98.20;;;;;;5333128;26;20236;-79
2024/04/16 05:40:59;;;;;;;1.53;1.30;;;7.00;98.20;;;;;;5323474;26;20748;-79
2024/04/16 05:43:25;;;;;;;1.50;1.20;;;7.00;98.20;;;;;;5320511;26;21002;-79
2024/04/16 05:45:55;;;;;;;1.50;1.20;;;7.10;98.20;;;;;;5310820;26;20536;-79
2024/04/16 05:48:21;;;;;;;1.57;1.20;;;7.10;98.20;;;;;;5324025;26;20467;-79
2024/04/16 05:50:50;;;;;;;1.50;1.20;;;7.10;98.20;;;;;;5304339;26;20464;-79
2024/04/16 05:53:19;;;;;;;1.50;1.20;;;7.20;98.20;;;;;;5330117;26;20487;-78
2024/04/16 05:55:50;;;;;;;1.53;1.27;;;7.20;98.20;;;;;;5312616;26;20475;-79
2024/04/16 05:58:17;;;;;;;1.53;1.30;;;7.20;98.20;;;;;;5313078;26;21013;-79
2024/04/16 06:00:46;;;;;;;1.50;1.30;;;7.20;98.20;;;;;;5313501;26;20704;-79
2024/04/16 06:03:18;;;;;;;1.50;1.20;;;7.20;98.20;;;;;;5275105;26;20542;-79
2024/04/16 06:05:47;;;;;;;1.50;1.20;;;7.20;98.20;;;;;;5324113;26;20564;-79
2024/04/16 06:08:13;;;;;;;1.50;1.20;;;7.20;98.20;;;;;;5273427;26;20538;-81
2024/04/16 06:10:42;;;;;;;1.50;1.30;;;7.20;98.20;;;;;;5317721;26;20483;-80
2024/04/16 06:13:18;;;;;;;1.50;1.20;;;7.20;98.20;;;;;;5332900;26;20268;-81
2024/04/16 06:15:46;;;;;;;1.50;1.20;;;7.20;98.20;;;;;;5309341;26;20521;-78
2024/04/16 06:18:12;;;;;;;1.60;1.40;;;7.20;98.20;;;;;;5331478;26;20528;-80
2024/04/16 06:20:43;;;;;;;1.50;1.20;;;7.20;98.20;;;;;;5309381;26;20463;-80
2024/04/16 06:23:09;;;;;;;1.50;1.40;;;7.20;98.20;;;;;;5295840;21;20294;-81
2024/04/16 06:25:40;;;;;;;1.50;1.30;;;7.20;98.20;;;;;;5308187;26;20599;-80
2024/04/16 06:28:06;;;;;;;1.50;1.20;;;7.20;98.20;;;;;;5306668;26;20801;-80
2024/04/16 06:31:04;;;;;;;1.50;1.20;;;7.20;98.20;;;;;;5296438;26;21477;-80
2024/04/16 06:33:31;;;;;;;1.50;1.20;;;7.20;98.20;;;;;;5272894;26;20304;-79
2024/04/16 06:35:59;;;;;;;1.50;1.20;;;7.20;98.20;;;;;;5293867;26;20464;-78
2024/04/16 06:38:25;;;;;;;1.50;1.20;;;7.20;98.20;;;;;;5306714;26;20479;-80
2024/04/16 06:40:54;;;;;;;1.50;1.30;;;7.10;98.20;;;;;;5294647;26;20533;-79
2024/04/16 06:43:20;;;;;;;1.53;1.40;;;7.10;98.20;;;;;;5299851;26;20645;-79
2024/04/16 06:45:48;;;;;;;1.50;1.30;;;7.10;98.20;;;;;;5299309;26;20793;-80
2024/04/16 06:48:17;;;;;;;1.57;1.30;;;7.10;98.20;;;;;;5314689;26;20256;-80
2024/04/16 06:50:50;;;;;;;1.50;1.20;;;7.00;98.20;;;;;;5299257;26;20539;-80
2024/04/16 06:53:16;;;;;;;1.60;1.40;;;7.00;98.20;;;;;;5274506;26;20913;-81
2024/04/16 06:55:45;;;;;;;1.50;1.20;;;6.90;98.20;;;;;;5304535;26;20467;-81
2024/04/16 06:58:11;;;;;;;1.50;1.10;;;6.90;98.20;;;;;;5291559;26;20526;-81
2024/04/16 07:00:40;;;;;;;1.50;1.30;;;6.90;98.20;;;;;;5305685;26;20459;-79
2024/04/16 07:03:06;;;;;;;1.50;1.20;;;6.80;98.20;;;;;;5293499;26;20303;-80
2024/04/16 07:05:39;;;;;;;1.50;1.27;;;6.80;98.20;;;;;;5305702;26;20463;-79
2024/04/16 07:08:06;;;;;;;1.50;1.20;;;6.80;98.20;;;;;;5298269;26;20302;-81
2024/04/16 07:10:34;;;;;;;1.50;1.20;;;6.80;98.20;;;;;;5288983;26;20782;-81
2024/04/16 07:13:00;;;;;;;1.50;1.20;;;6.70;98.20;;;;;;5295921;26;20628;-77
2024/04/16 07:15:29;;;;;;;1.50;1.17;;;6.70;98.20;;;;;;5296204;26;20484;-79
2024/04/16 07:17:58;;;;;;;1.50;1.10;;;6.70;98.20;;;;;;5298808;26;20373;-81
2024/04/16 07:20:24;;;;;;;1.50;1.20;;;6.70;98.20;;;;;;5302329;26;20588;-80
2024/04/16 07:23:01;;;;;;;1.50;1.20;;;6.70;98.20;;;;;;5298273;26;20549;-79
2024/04/16 07:25:27;;;;;;;1.50;1.20;;;6.70;98.20;;;;;;5299888;26;20483;-79
2024/04/16 07:27:56;;;;;;;1.50;1.27;;;6.70;98.20;;;;;;5285454;26;20511;-78
2024/04/16 07:30:21;;;;;;;1.50;1.23;;;6.70;98.20;;;;;;5291155;26;20489;-79
2024/04/16 07:32:50;;;;;;;1.50;1.10;;;6.70;98.20;;;;;;5304034;26;20562;-80
2024/04/16 07:35:16;;;;;;;1.50;1.20;;;6.70;98.20;;;;;;5296973;26;20372;-80
2024/04/16 07:37:44;;;;;;;1.50;1.20;;;6.70;98.20;;;;;;5311017;26;20926;-80
2024/04/16 07:40:19;;;;;;;1.50;1.20;;;6.80;98.20;;;;;;5293651;26;20863;-79
2024/04/16 07:42:47;;;;;;;1.50;1.20;;;6.80;98.20;;;;;;5291650;26;20500;-79
2024/04/16 07:45:13;;;;;;;1.53;1.40;;;6.80;98.20;;;;;;5296501;26;20821;-78
2024/04/16 07:47:42;;;;;;;1.50;1.20;;;6.80;98.20;;;;;;5310146;26;20546;-79
2024/04/16 07:50:08;;;;;;;1.50;1.30;;;6.80;98.20;;;;;;5297833;26;20338;-79
2024/04/16 07:52:36;;;;;;;1.53;1.20;;;6.80;98.20;;;;;;5295168;26;20491;-81
2024/04/16 07:55:02;;;;;;;1.50;1.20;;;6.80;98.20;;;;;;5295137;26;20242;-78
2024/04/16 07:57:33;;;;;;;1.50;1.30;;;6.90;98.20;;;;;;5290775;26;20491;-79
2024/04/16 07:59:59;;;;;;;1.50;1.20;;;6.90;98.20;;;;;;5297171;26;20597;-80
2024/04/16 08:02:28;;;;;;;1.50;1.30;;;7.00;98.20;;;;;;5301623;26;20508;-81
2024/04/16 08:04:54;;;;;;;1.50;1.20;;;7.00;98.20;;;;;;5305418;26;20288;-80
2024/04/16 08:07:22;;;;;;;1.50;1.30;;;7.10;98.20;;;;;;5297720;26;20939;-79
2024/04/16 08:09:48;;;;;;;1.50;1.20;;;7.20;98.20;;;;;;5304314;26;20463;-78
2024/04/16 08:12:17;;;;;;;1.50;1.20;;;7.30;98.20;;;;;;5306421;26;20569;-79
2024/04/16 08:14:45;;;;;;;1.50;1.20;;;7.40;98.20;;;;;;5302838;26;20245;-78
2024/04/16 08:17:14;;;;;;;1.50;1.20;;;7.50;98.20;;;;;;5316740;26;21205;-77
2024/04/16 08:19:40;;;;;;;1.50;1.30;;;7.50;98.20;;;;;;5316061;26;20483;-79
2024/04/16 08:22:16;;;;;;;1.50;1.20;;;7.60;98.20;;;;;;5301075;26;20555;-79
2024/04/16 08:24:42;;;;;;;1.50;1.20;;;7.60;98.20;;;;;;5308959;26;20235;-79
2024/04/16 08:27:10;;;;;;;1.50;1.20;;;7.70;98.20;;;;;;5311765;26;20548;-79
2024/04/16 08:29:36;;;;;;;1.50;1.20;;;7.80;98.20;;;;;;5310859;26;20467;-82
2024/04/16 08:32:07;;;;;;;1.53;1.20;;;7.90;98.20;;;;;;5303255;26;20495;-81
2024/04/16 08:34:38;;;;;;;1.50;1.10;;;7.90;98.20;;;;;;5307258;26;20283;-79
2024/04/16 08:37:07;;;;;;;1.50;1.20;;;8.00;98.20;;;;;;5294222;26;20511;-80
2024/04/16 08:39:33;;;;;;;1.50;1.20;;;8.10;98.20;;;;;;5303130;26;20585;-78
2024/04/16 08:42:02;;;;;;;1.53;1.20;;;8.20;98.20;;;;;;5301713;26;20924;-83
2024/04/16 08:44:31;;;;;;;1.50;1.20;;;8.30;98.20;;;;;;5303921;26;20515;-79
2024/04/16 08:47:02;;;;;;;1.60;1.40;;;8.40;98.20;;;;;;5307087;26;20553;-80
2024/04/16 08:49:32;;;;;;;1.50;1.10;;;8.40;98.20;;;;;;5306539;26;20471;-81
2024/04/16 08:52:01;;;;;;;1.57;1.23;;;8.50;98.20;;;;;;5292944;26;20921;-78
2024/04/16 08:54:28;;;;;;;1.50;1.10;;;8.50;98.20;;;;;;5298785;26;20475;-81
2024/04/16 08:56:57;;;;;;;1.57;1.20;;;8.60;98.20;;;;;;5283178;26;20914;-79
2024/04/16 08:59:23;;;;;;;1.50;1.17;;;8.70;98.20;;;;;;5312559;26;20555;-81
2024/04/16 09:01:52;;;;;;;1.57;1.20;;;8.80;98.20;;;;;;5307015;26;20503;-80
2024/04/16 09:04:18;;;;;;;1.60;1.20;;;8.90;98.20;;;;;;5314953;26;20480;-83
2024/04/16 09:06:50;;;;;;;1.50;1.10;;;8.90;98.20;;;;;;5293907;26;20573;-80
2024/04/16 09:09:16;;;;;;;1.50;1.20;;;9.00;98.20;;;;;;5314311;26;20244;-80
2024/04/16 09:11:45;;;;;;;1.50;1.10;;;9.10;98.20;;;;;;5286904;26;20499;-82
2024/04/16 09:14:11;;;;;;;1.50;1.20;;;9.20;98.20;;;;;;5315843;26;20279;-81
2024/04/16 09:16:40;;;;;;;1.50;1.10;;;9.30;98.20;;;;;;5298990;26;20501;-81
2024/04/16 09:19:07;;;;;;;1.50;1.10;;;9.40;98.20;;;;;;5320840;26;20579;-82
2024/04/16 09:21:39;;;;;;;1.70;1.53;;;9.40;98.20;;;;;;5300721;26;20489;-82
2024/04/16 09:24:08;;;;;;;1.50;1.10;;;9.50;98.20;;;;;;5321763;26;20518;-81
2024/04/16 09:26:36;;;;;;;1.50;1.10;;;9.60;98.20;;;;;;5304187;26;20910;-78
2024/04/16 09:29:18;;;;;;;;;;;;;;;;;;;;;
2024/04/16 09:31:47;;;;;;;1.50;1.10;;;9.60;98.20;;;;;;5312385;26;20550;-81
2024/04/16 09:34:12;;;;;;;1.53;1.10;;;9.70;98.20;;;;;;5318071;26;20859;-77
2024/04/16 09:36:50;;;;;;;1.50;1.10;;;9.90;98.20;;;;;;5293762;26;20562;-80
2024/04/16 09:39:21;;;;;;;1.50;1.10;;;10.00;98.20;;;;;;5300568;26;20267;-81
2024/04/16 09:41:50;;;;;;;1.60;1.13;;;10.10;98.20;;;;;;5309735;26;20638;-81
2024/04/16 09:44:17;;;;;;;1.57;1.10;;;10.10;98.20;;;;;;5308726;26;20871;-80
2024/04/16 09:46:47;;;;;;;1.50;1.20;;;10.10;98.20;;;;;;5298194;26;20491;-79
2024/04/16 09:49:14;;;;;;;1.53;1.10;;;10.00;98.20;;;;;;5315536;26;20707;-78
2024/04/16 09:51:43;;;;;;;1.50;1.10;;;10.00;98.20;;;;;;5308354;26;20550;-81
2024/04/16 09:54:11;;;;;;;1.50;1.10;;;10.10;98.20;;;;;;5316526;26;21344;-80
2024/04/16 09:57:12;;;;;;;1.50;1.10;;;10.00;98.20;;;;;;5313190;26;20545;-82
2024/04/16 09:59:39;;;;;;;1.50;1.10;;;10.00;98.20;;;;;;5305685;26;20532;-76
2024/04/16 10:02:10;;;;;;;1.50;1.10;;;10.10;98.20;;;;;;5311777;26;20648;-77
2024/04/16 10:04:40;;;;;;;1.50;1.00;;;10.10;98.20;;;;;;5317772;26;20463;-78
2024/04/16 10:07:14;;;;;;;1.50;1.10;;;10.10;98.20;;;;;;5291128;26;20485;-78
2024/04/16 10:09:40;;;;;;;1.53;1.10;;;10.20;98.20;;;;;;5303241;26;20487;-79
2024/04/16 10:12:12;;;;;;;1.57;1.10;;;10.20;98.20;;;;;;5294788;26;20599;-78
2024/04/16 10:14:43;;;;;;;1.50;1.10;;;10.20;98.20;;;;;;5309255;26;20499;-78
2024/04/16 10:17:15;;;;;;;1.50;1.10;;;10.30;98.20;;;;;;5296657;26;20511;-80
2024/04/16 10:19:41;;;;;;;1.53;1.07;;;10.30;98.20;;;;;;5306059;26;20923;-78
2024/04/16 10:22:15;;;;;;;1.50;1.00;;;10.40;98.20;;;;;;5311419;26;20497;-78
2024/04/16 10:24:51;;;;;;;1.50;1.10;;;10.30;98.20;;;;;;5298535;26;20294;-79
2024/04/16 10:27:23;;;;;;;1.53;1.10;;;10.30;98.20;;;;;;5283917;26;20608;-79
2024/04/16 10:30:04;;;;;;;1.50;1.00;;;10.30;98.20;;;;;;5303291;26;20526;-79
2024/04/16 10:32:33;;;;;;;1.50;1.10;;;10.30;98.20;;;;;;5309214;26;20541;-78
2024/04/16 10:34:59;;;;;;;1.50;1.10;;;10.20;98.20;;;;;;5306432;26;20483;-78
2024/04/16 10:37:28;;;;;;;1.50;1.00;;;10.20;98.20;;;;;;5289845;26;20505;-79
2024/04/16 10:39:59;;;;;;;1.50;1.10;;;10.10;98.20;;;;;;5296017;26;20600;-78
2024/04/16 10:42:32;;;;;;;1.53;1.10;;;10.10;98.20;;;;;;5296028;26;21475;-78
2024/04/16 10:45:00;;;;;;;1.50;1.13;;;10.00;98.20;;;;;;5299840;26;20554;-79
2024/04/16 10:47:29;;;;;;;1.50;1.10;;;9.90;98.20;;;;;;5350057;21;20563;-75
2024/04/16 10:49:57;;;;;;;1.50;1.10;;;9.80;98.20;;;;;;5309735;26;20616;-77
2024/04/16 10:56:42;;;;;;;1.50;1.20;;;9.50;98.20;;;;;;5230978;27;20470;-76
2024/04/16 10:59:12;;;;;;;1.50;1.10;;;9.30;98.20;;;;;;5247337;27;20506;-75
2024/04/16 11:01:42;;;;;;;1.50;1.13;;;9.30;98.20;;;;;;5287516;26;20544;-74
2024/04/16 11:04:11;;;;;;;1.53;1.10;;;9.20;98.20;;;;;;5293639;26;20799;-76
2024/04/16 11:06:43;;;;;;;1.83;1.60;;;9.20;98.20;;;;;;5287123;26;20565;-74
2024/04/16 11:09:10;;;;;;;1.57;1.20;;;9.10;98.20;;;;;;5285681;26;20596;-77
2024/04/16 11:11:40;;;;;;;1.50;1.10;;;9.10;98.20;;;;;;5276954;26;20548;-76
2024/04/16 11:14:10;;;;;;;1.50;1.03;;;9.10;98.20;;;;;;5293979;26;20493;-76
2024/04/16 11:16:43;;;;;;;1.50;1.10;;;9.10;98.20;;;;;;5281615;26;20594;-77
2024/04/16 11:19:10;;;;;;;1.50;1.10;;;9.20;98.20;;;;;;5286518;26;20496;-77
2024/04/16 11:21:39;;;;;;;1.50;1.10;;;9.30;98.20;;;;;;5283683;26;20509;-76
2024/04/16 11:24:06;;;;;;;1.50;1.10;;;9.40;98.20;;;;;;5286967;26;20563;-76
2024/04/16 11:26:34;;;;;;;1.50;1.10;;;9.50;98.20;;;;;;5275860;26;20576;-76
2024/04/16 11:29:02;;;;;;;1.50;1.10;;;9.60;98.20;;;;;;5289478;26;20485;-75
2024/04/16 11:31:33;;;;;;;1.50;1.10;;;9.60;98.20;;;;;;5281767;26;20519;-74
2024/04/16 11:33:59;;;;;;;1.57;1.20;;;9.70;98.20;;;;;;5296500;26;20556;-76
2024/04/16 11:36:28;;;;;;;1.50;1.10;;;9.90;98.20;;;;;;5275378;26;20495;-76
2024/04/16 11:38:54;;;;;;;1.50;1.10;;;10.10;98.20;;;;;;5302467;26;20839;-77
2024/04/16 11:41:22;;;;;;;1.50;1.10;;;10.20;98.20;;;;;;5277413;26;20566;-77
2024/04/16 11:43:49;;;;;;;1.50;1.10;;;10.40;98.20;;;;;;5300131;26;20519;-77
2024/04/16 11:46:18;;;;;;;1.50;1.10;;;10.50;98.20;;;;;;5271258;26;20590;-75
2024/04/16 11:48:48;;;;;;;1.50;1.00;;;10.70;98.20;;;;;;5297673;26;20488;-76
2024/04/16 11:51:17;;;;;;;1.50;1.10;;;10.90;98.20;;;;;;5262634;26;20595;-76
2024/04/16 11:53:44;;;;;;;1.50;1.00;;;11.00;98.20;;;;;;5298229;26;20484;-75
2024/04/16 11:56:13;;;;;;;1.50;1.00;;;11.20;98.20;;;;;;5272184;26;20577;-77
2024/04/16 11:58:39;;;;;;;1.50;1.00;;;11.40;98.20;;;;;;5302745;26;20537;-76
2024/04/16 12:01:08;;;;;;;1.50;1.00;;;11.50;98.20;;;;;;5270752;26;20789;-77
2024/04/16 12:03:33;;;;;;;1.50;1.00;;;11.60;98.20;;;;;;5312338;26;20261;-75
2024/04/16 12:06:05;;;;;;;1.50;1.00;;;11.80;98.20;;;;;;5274122;26;20536;-78
2024/04/16 12:08:30;;;;;;;1.50;1.10;;;12.00;98.20;;;;;;5300878;26;20268;-77
2024/04/16 12:10:59;;;;;;;1.50;1.00;;;12.10;98.20;;;;;;5274722;26;20539;-77
2024/04/16 12:13:25;;;;;;;1.50;1.10;;;12.20;98.20;;;;;;5294273;26;20249;-76
2024/04/16 12:15:54;;;;;;;1.50;1.00;;;12.20;98.20;;;;;;5273935;26;21005;-77
2024/04/16 12:18:20;;;;;;;1.50;1.00;;;12.30;98.20;;;;;;5307090;26;20245;-77
2024/04/16 12:20:49;;;;;;;1.50;1.10;;;12.30;98.20;;;;;;5272242;26;20471;-76
2024/04/16 12:23:17;;;;;;;1.50;1.00;;;12.50;98.20;;;;;;5303339;26;20284;-76
2024/04/16 12:25:46;;;;;;;1.50;1.00;;;12.60;98.20;;;;;;5283086;26;20801;-77
2024/04/16 12:28:15;;;;;;;1.50;1.00;;;12.70;98.20;;;;;;5240515;27;20760;-77
2024/04/16 12:30:43;;;;;;;1.50;1.00;;;12.80;98.20;;;;;;5284821;26;20566;-77
2024/04/16 12:33:11;;;;;;;1.50;1.00;;;12.90;98.20;;;;;;5298329;26;21080;-77
2024/04/16 12:35:39;;;;;;;1.50;1.00;;;13.00;98.20;;;;;;5272330;27;20971;-77
2024/04/16 12:38:05;;;;;;;1.50;1.03;;;13.10;98.20;;;;;;5297709;26;20567;-77
2024/04/16 12:40:36;;;;;;;1.50;1.00;;;13.20;98.20;;;;;;5270701;27;20473;-76
2024/04/16 12:43:02;;;;;;;1.50;1.00;;;13.20;98.20;;;;;;5295851;26;20268;-77
2024/04/16 12:45:31;;;;;;;1.50;0.90;;;13.20;98.20;;;;;;5277709;27;20963;-75
2024/04/16 12:47:57;;;;;;;1.50;1.00;;;13.10;98.20;;;;;;5292213;26;20378;-76
2024/04/16 12:50:25;;;;;;;1.47;0.90;;;13.10;98.20;;;;;;5282755;26;20501;-77
2024/04/16 12:52:51;;;;;;;1.50;1.00;;;13.10;98.20;;;;;;5298378;26;20923;-74
2024/04/16 12:55:20;;;;;;;1.50;1.00;;;13.00;98.20;;;;;;5267380;27;20496;-75
2024/04/16 12:57:49;;;;;;;1.50;1.00;;;12.80;98.20;;;;;;5296097;26;21010;-75
2024/04/16 13:00:17;;;;;;;1.50;1.00;;;12.60;98.20;;;;;;5276124;27;20520;-75
2024/04/16 13:02:45;;;;;;;1.50;1.00;;;12.50;98.20;;;;;;5301325;26;20620;-74
2024/04/16 13:05:13;;;;;;;1.50;1.00;;;12.30;98.20;;;;;;5276236;27;20480;-75
2024/04/16 13:07:39;;;;;;;1.50;1.00;;;12.20;98.20;;;;;;5293205;26;20514;-75